sensor_id;sensor_type;location;lat;lon;timestamp;P1;durP1;ratioP1;P2;durP2;ratioP2
13230;SDS011;6681;53.254;10.398;2022-12-20T00:02:20;16.63;;;11.47;;
13230;SDS011;6681;53.254;10.398;2022-12-20T00:04:46;18.37;;;12.17;;
13230;SDS011;6681;53.254;10.398;2022-12-20T00:07:11;19.20;;;11.73;;
13230;SDS011;6681;53.254;10.398;2022-12-20T00:09:37;19.27;;;13.93;;
13230;SDS011;6681;53.254;10.398;2022-12-20T00:12:03;17.33;;;12.43;;
13230;SDS011;6681;53.254;10.398;2022-12-20T00:14:28;16.80;;;12.50;;
13230;SDS011;6681;53.254;10.398;2022-12-20T00:16:54;17.77;;;13.03;;
13230;SDS011;6681;53.254;10.398;2022-12-20T00:19:20;20.27;;;12.77;;
13230;SDS011;6681;53.254;10.398;2022-12-20T00:21:45;15.90;;;11.77;;
13230;SDS011;6681;53.254;10.398;2022-12-20T00:24:11;16.00;;;11.87;;
13230;SDS011;6681;53.254;10.398;2022-12-20T00:26:37;17.37;;;12.07;;
13230;SDS011;6681;53.254;10.398;2022-12-20T00:29:03;14.90;;;11.13;;
13230;SDS011;6681;53.254;10.398;2022-12-20T00:31:29;16.47;;;11.87;;
13230;SDS011;6681;53.254;10.398;2022-12-20T00:33:56;21.10;;;12.90;;
13230;SDS011;6681;53.254;10.398;2022-12-20T00:36:23;16.47;;;12.83;;
13230;SDS011;6681;53.254;10.398;2022-12-20T00:38:51;17.63;;;12.60;;
13230;SDS011;6681;53.254;10.398;2022-12-20T00:41:19;18.80;;;12.53;;
13230;SDS011;6681;53.254;10.398;2022-12-20T00:43:47;19.83;;;12.53;;
13230;SDS011;6681;53.254;10.398;2022-12-20T00:46:13;18.60;;;13.30;;
13230;SDS011;6681;53.254;10.398;2022-12-20T00:48:40;15.30;;;11.37;;
13230;SDS011;6681;53.254;10.398;2022-12-20T00:51:07;19.23;;;12.67;;
13230;SDS011;6681;53.254;10.398;2022-12-20T00:53:40;16.13;;;12.50;;
13230;SDS011;6681;53.254;10.398;2022-12-20T00:56:06;18.03;;;12.73;;
13230;SDS011;6681;53.254;10.398;2022-12-20T00:58:33;18.87;;;11.00;;
13230;SDS011;6681;53.254;10.398;2022-12-20T01:01:00;19.83;;;13.17;;
13230;SDS011;6681;53.254;10.398;2022-12-20T01:03:28;17.40;;;11.73;;
13230;SDS011;6681;53.254;10.398;2022-12-20T01:05:55;15.70;;;11.10;;
13230;SDS011;6681;53.254;10.398;2022-12-20T01:08:23;18.37;;;13.27;;
13230;SDS011;6681;53.254;10.398;2022-12-20T01:13:36;16.80;;;12.27;;
13230;SDS011;6681;53.254;10.398;2022-12-20T01:16:04;20.23;;;12.07;;
13230;SDS011;6681;53.254;10.398;2022-12-20T01:18:30;16.90;;;10.97;;
13230;SDS011;6681;53.254;10.398;2022-12-20T01:21:03;16.33;;;11.10;;
13230;SDS011;6681;53.254;10.398;2022-12-20T01:23:30;19.47;;;11.50;;
13230;SDS011;6681;53.254;10.398;2022-12-20T01:25:57;16.60;;;10.93;;
13230;SDS011;6681;53.254;10.398;2022-12-20T01:28:23;17.43;;;11.93;;
13230;SDS011;6681;53.254;10.398;2022-12-20T01:30:49;20.03;;;11.13;;
13230;SDS011;6681;53.254;10.398;2022-12-20T01:33:14;21.13;;;11.40;;
13230;SDS011;6681;53.254;10.398;2022-12-20T01:35:40;18.27;;;13.00;;
13230;SDS011;6681;53.254;10.398;2022-12-20T01:38:06;15.37;;;11.27;;
13230;SDS011;6681;53.254;10.398;2022-12-20T01:40:31;16.00;;;12.53;;
13230;SDS011;6681;53.254;10.398;2022-12-20T01:42:57;17.53;;;12.03;;
13230;SDS011;6681;53.254;10.398;2022-12-20T01:45:26;15.63;;;10.53;;
13230;SDS011;6681;53.254;10.398;2022-12-20T01:47:55;17.93;;;12.43;;
13230;SDS011;6681;53.254;10.398;2022-12-20T01:50:22;14.67;;;11.90;;
13230;SDS011;6681;53.254;10.398;2022-12-20T01:52:49;19.10;;;13.17;;
13230;SDS011;6681;53.254;10.398;2022-12-20T01:55:20;16.67;;;10.90;;
13230;SDS011;6681;53.254;10.398;2022-12-20T01:57:53;17.13;;;11.87;;
13230;SDS011;6681;53.254;10.398;2022-12-20T02:00:26;18.30;;;12.77;;
13230;SDS011;6681;53.254;10.398;2022-12-20T02:02:53;24.40;;;12.77;;
13230;SDS011;6681;53.254;10.398;2022-12-20T02:05:20;21.57;;;11.60;;
13230;SDS011;6681;53.254;10.398;2022-12-20T02:07:48;18.20;;;11.13;;
13230;SDS011;6681;53.254;10.398;2022-12-20T02:10:16;19.67;;;12.97;;
13230;SDS011;6681;53.254;10.398;2022-12-20T02:12:44;19.13;;;12.50;;
13230;SDS011;6681;53.254;10.398;2022-12-20T02:18:05;21.60;;;12.87;;
13230;SDS011;6681;53.254;10.398;2022-12-20T02:35:04;18.23;;;12.63;;
13230;SDS011;6681;53.254;10.398;2022-12-20T02:37:34;16.77;;;12.37;;
13230;SDS011;6681;53.254;10.398;2022-12-20T02:40:00;17.50;;;11.33;;
13230;SDS011;6681;53.254;10.398;2022-12-20T02:42:28;22.10;;;13.50;;
13230;SDS011;6681;53.254;10.398;2022-12-20T02:44:58;18.77;;;12.33;;
13230;SDS011;6681;53.254;10.398;2022-12-20T02:47:44;18.23;;;11.90;;
13230;SDS011;6681;53.254;10.398;2022-12-20T02:50:30;17.90;;;12.53;;
13230;SDS011;6681;53.254;10.398;2022-12-20T02:53:01;13.70;;;12.07;;
13230;SDS011;6681;53.254;10.398;2022-12-20T02:55:38;17.57;;;12.97;;
13230;SDS011;6681;53.254;10.398;2022-12-20T02:58:27;17.03;;;12.00;;
13230;SDS011;6681;53.254;10.398;2022-12-20T03:00:58;16.83;;;12.30;;
13230;SDS011;6681;53.254;10.398;2022-12-20T03:03:30;19.57;;;13.03;;
13230;SDS011;6681;53.254;10.398;2022-12-20T03:05:57;17.37;;;12.53;;
13230;SDS011;6681;53.254;10.398;2022-12-20T03:08:23;20.13;;;12.37;;
13230;SDS011;6681;53.254;10.398;2022-12-20T03:10:49;18.00;;;12.53;;
13230;SDS011;6681;53.254;10.398;2022-12-20T03:13:16;17.50;;;12.80;;
13230;SDS011;6681;53.254;10.398;2022-12-20T03:15:42;17.67;;;11.33;;
13230;SDS011;6681;53.254;10.398;2022-12-20T03:18:08;20.33;;;14.13;;
13230;SDS011;6681;53.254;10.398;2022-12-20T03:20:34;19.53;;;12.23;;
13230;SDS011;6681;53.254;10.398;2022-12-20T03:23:00;14.07;;;12.03;;
13230;SDS011;6681;53.254;10.398;2022-12-20T03:25:25;16.67;;;12.47;;
13230;SDS011;6681;53.254;10.398;2022-12-20T03:27:51;20.10;;;12.47;;
13230;SDS011;6681;53.254;10.398;2022-12-20T03:30:17;18.53;;;11.70;;
13230;SDS011;6681;53.254;10.398;2022-12-20T03:32:43;14.73;;;10.93;;
13230;SDS011;6681;53.254;10.398;2022-12-20T03:35:09;19.43;;;13.53;;
13230;SDS011;6681;53.254;10.398;2022-12-20T03:37:34;18.37;;;12.33;;
13230;SDS011;6681;53.254;10.398;2022-12-20T03:40:00;15.37;;;11.63;;
13230;SDS011;6681;53.254;10.398;2022-12-20T03:42:26;15.50;;;12.37;;
13230;SDS011;6681;53.254;10.398;2022-12-20T03:44:51;19.87;;;12.23;;
13230;SDS011;6681;53.254;10.398;2022-12-20T03:47:17;17.70;;;10.80;;
13230;SDS011;6681;53.254;10.398;2022-12-20T03:49:43;17.53;;;12.03;;
13230;SDS011;6681;53.254;10.398;2022-12-20T03:52:11;16.07;;;12.50;;
13230;SDS011;6681;53.254;10.398;2022-12-20T03:54:38;17.73;;;14.27;;
13230;SDS011;6681;53.254;10.398;2022-12-20T03:57:04;19.17;;;12.80;;
13230;SDS011;6681;53.254;10.398;2022-12-20T03:59:30;17.30;;;11.73;;
13230;SDS011;6681;53.254;10.398;2022-12-20T04:01:56;19.70;;;12.67;;
13230;SDS011;6681;53.254;10.398;2022-12-20T04:04:21;19.37;;;13.47;;
13230;SDS011;6681;53.254;10.398;2022-12-20T04:06:47;18.17;;;12.00;;
13230;SDS011;6681;53.254;10.398;2022-12-20T04:09:13;18.17;;;12.53;;
13230;SDS011;6681;53.254;10.398;2022-12-20T04:11:39;18.37;;;13.60;;
13230;SDS011;6681;53.254;10.398;2022-12-20T04:14:05;16.70;;;12.40;;
13230;SDS011;6681;53.254;10.398;2022-12-20T04:16:31;16.77;;;10.47;;
13230;SDS011;6681;53.254;10.398;2022-12-20T04:18:57;15.33;;;11.43;;
13230;SDS011;6681;53.254;10.398;2022-12-20T04:21:23;18.20;;;12.13;;
13230;SDS011;6681;53.254;10.398;2022-12-20T04:23:50;15.67;;;10.57;;
13230;SDS011;6681;53.254;10.398;2022-12-20T04:26:16;18.67;;;12.97;;
13230;SDS011;6681;53.254;10.398;2022-12-20T04:28:42;15.87;;;11.50;;
13230;SDS011;6681;53.254;10.398;2022-12-20T04:31:08;21.10;;;13.20;;
13230;SDS011;6681;53.254;10.398;2022-12-20T04:33:34;17.30;;;12.33;;
13230;SDS011;6681;53.254;10.398;2022-12-20T04:36:00;20.57;;;12.20;;
13230;SDS011;6681;53.254;10.398;2022-12-20T04:38:26;18.47;;;12.27;;
13230;SDS011;6681;53.254;10.398;2022-12-20T04:40:52;16.20;;;11.87;;
13230;SDS011;6681;53.254;10.398;2022-12-20T04:43:19;17.63;;;12.13;;
13230;SDS011;6681;53.254;10.398;2022-12-20T04:45:47;17.77;;;11.37;;
13230;SDS011;6681;53.254;10.398;2022-12-20T04:48:14;19.00;;;12.20;;
13230;SDS011;6681;53.254;10.398;2022-12-20T04:50:41;17.30;;;11.67;;
13230;SDS011;6681;53.254;10.398;2022-12-20T04:53:07;18.33;;;11.57;;
13230;SDS011;6681;53.254;10.398;2022-12-20T04:55:54;15.47;;;11.97;;
13230;SDS011;6681;53.254;10.398;2022-12-20T04:58:19;19.27;;;11.43;;
13230;SDS011;6681;53.254;10.398;2022-12-20T05:00:45;16.50;;;12.33;;
13230;SDS011;6681;53.254;10.398;2022-12-20T05:03:11;16.57;;;11.50;;
13230;SDS011;6681;53.254;10.398;2022-12-20T05:05:36;18.00;;;11.13;;
13230;SDS011;6681;53.254;10.398;2022-12-20T05:08:02;17.70;;;10.20;;
13230;SDS011;6681;53.254;10.398;2022-12-20T05:10:28;17.83;;;12.37;;
13230;SDS011;6681;53.254;10.398;2022-12-20T05:12:53;17.90;;;12.20;;
13230;SDS011;6681;53.254;10.398;2022-12-20T05:15:19;18.87;;;12.93;;
13230;SDS011;6681;53.254;10.398;2022-12-20T05:17:45;18.20;;;11.60;;
13230;SDS011;6681;53.254;10.398;2022-12-20T05:20:11;20.40;;;13.27;;
13230;SDS011;6681;53.254;10.398;2022-12-20T05:22:37;17.83;;;12.17;;
13230;SDS011;6681;53.254;10.398;2022-12-20T05:25:21;17.37;;;12.60;;
13230;SDS011;6681;53.254;10.398;2022-12-20T05:28:05;14.50;;;11.30;;
13230;SDS011;6681;53.254;10.398;2022-12-20T05:30:31;16.63;;;11.57;;
13230;SDS011;6681;53.254;10.398;2022-12-20T05:32:57;14.93;;;11.07;;
13230;SDS011;6681;53.254;10.398;2022-12-20T05:35:22;20.57;;;11.67;;
13230;SDS011;6681;53.254;10.398;2022-12-20T05:37:48;17.30;;;11.90;;
13230;SDS011;6681;53.254;10.398;2022-12-20T05:40:14;15.87;;;10.67;;
13230;SDS011;6681;53.254;10.398;2022-12-20T05:42:40;14.87;;;11.60;;
13230;SDS011;6681;53.254;10.398;2022-12-20T05:45:06;16.33;;;11.83;;
13230;SDS011;6681;53.254;10.398;2022-12-20T05:47:32;15.60;;;11.30;;
13230;SDS011;6681;53.254;10.398;2022-12-20T05:50:00;15.17;;;11.30;;
13230;SDS011;6681;53.254;10.398;2022-12-20T05:52:28;15.57;;;11.17;;
13230;SDS011;6681;53.254;10.398;2022-12-20T05:54:54;15.50;;;11.50;;
13230;SDS011;6681;53.254;10.398;2022-12-20T05:57:19;20.30;;;12.80;;
13230;SDS011;6681;53.254;10.398;2022-12-20T05:59:49;18.47;;;12.83;;
13230;SDS011;6681;53.254;10.398;2022-12-20T06:02:14;18.17;;;12.83;;
13230;SDS011;6681;53.254;10.398;2022-12-20T06:04:40;17.20;;;12.03;;
13230;SDS011;6681;53.254;10.398;2022-12-20T06:07:05;20.97;;;13.40;;
13230;SDS011;6681;53.254;10.398;2022-12-20T06:09:31;16.57;;;11.90;;
13230;SDS011;6681;53.254;10.398;2022-12-20T06:11:57;19.43;;;13.37;;
13230;SDS011;6681;53.254;10.398;2022-12-20T06:14:23;18.33;;;12.43;;
13230;SDS011;6681;53.254;10.398;2022-12-20T06:16:49;19.57;;;13.37;;
13230;SDS011;6681;53.254;10.398;2022-12-20T06:19:15;23.33;;;15.43;;
13230;SDS011;6681;53.254;10.398;2022-12-20T06:21:41;19.87;;;14.30;;
13230;SDS011;6681;53.254;10.398;2022-12-20T06:24:07;17.03;;;13.43;;
13230;SDS011;6681;53.254;10.398;2022-12-20T06:26:32;17.83;;;14.17;;
13230;SDS011;6681;53.254;10.398;2022-12-20T06:29:05;18.80;;;13.10;;
13230;SDS011;6681;53.254;10.398;2022-12-20T06:31:33;24.80;;;15.07;;
13230;SDS011;6681;53.254;10.398;2022-12-20T06:33:59;21.87;;;14.13;;
13230;SDS011;6681;53.254;10.398;2022-12-20T06:36:24;19.67;;;14.13;;
13230;SDS011;6681;53.254;10.398;2022-12-20T06:38:50;21.63;;;14.47;;
13230;SDS011;6681;53.254;10.398;2022-12-20T06:41:16;22.07;;;14.27;;
13230;SDS011;6681;53.254;10.398;2022-12-20T06:43:52;22.53;;;14.13;;
13230;SDS011;6681;53.254;10.398;2022-12-20T06:46:24;19.17;;;13.43;;
13230;SDS011;6681;53.254;10.398;2022-12-20T06:48:51;20.67;;;15.50;;
13230;SDS011;6681;53.254;10.398;2022-12-20T06:51:17;21.33;;;14.67;;
13230;SDS011;6681;53.254;10.398;2022-12-20T06:53:43;22.40;;;15.33;;
13230;SDS011;6681;53.254;10.398;2022-12-20T06:56:08;22.70;;;15.70;;
13230;SDS011;6681;53.254;10.398;2022-12-20T06:58:34;22.93;;;15.23;;
13230;SDS011;6681;53.254;10.398;2022-12-20T07:01:00;23.63;;;15.53;;
13230;SDS011;6681;53.254;10.398;2022-12-20T07:03:25;24.47;;;14.93;;
13230;SDS011;6681;53.254;10.398;2022-12-20T07:05:51;25.33;;;14.80;;
13230;SDS011;6681;53.254;10.398;2022-12-20T07:08:18;20.97;;;14.40;;
13230;SDS011;6681;53.254;10.398;2022-12-20T07:10:44;21.60;;;14.27;;
13230;SDS011;6681;53.254;10.398;2022-12-20T07:13:10;21.70;;;14.50;;
13230;SDS011;6681;53.254;10.398;2022-12-20T07:15:36;25.43;;;15.90;;
13230;SDS011;6681;53.254;10.398;2022-12-20T07:18:02;22.73;;;14.80;;
13230;SDS011;6681;53.254;10.398;2022-12-20T07:20:28;20.83;;;15.40;;
13230;SDS011;6681;53.254;10.398;2022-12-20T07:22:54;21.90;;;14.87;;
13230;SDS011;6681;53.254;10.398;2022-12-20T07:25:20;20.07;;;15.67;;
13230;SDS011;6681;53.254;10.398;2022-12-20T07:27:46;25.13;;;16.40;;
13230;SDS011;6681;53.254;10.398;2022-12-20T07:30:14;21.73;;;16.63;;
13230;SDS011;6681;53.254;10.398;2022-12-20T07:32:40;23.43;;;14.93;;
13230;SDS011;6681;53.254;10.398;2022-12-20T07:35:06;20.53;;;15.07;;
13230;SDS011;6681;53.254;10.398;2022-12-20T07:37:32;18.53;;;14.90;;
13230;SDS011;6681;53.254;10.398;2022-12-20T07:39:58;26.30;;;14.97;;
13230;SDS011;6681;53.254;10.398;2022-12-20T07:42:23;20.10;;;15.00;;
13230;SDS011;6681;53.254;10.398;2022-12-20T07:44:49;20.13;;;14.93;;
13230;SDS011;6681;53.254;10.398;2022-12-20T07:47:14;23.80;;;14.97;;
13230;SDS011;6681;53.254;10.398;2022-12-20T07:49:40;21.83;;;13.97;;
13230;SDS011;6681;53.254;10.398;2022-12-20T07:52:06;21.73;;;16.23;;
13230;SDS011;6681;53.254;10.398;2022-12-20T07:54:34;22.00;;;15.13;;
13230;SDS011;6681;53.254;10.398;2022-12-20T07:57:09;18.30;;;13.33;;
13230;SDS011;6681;53.254;10.398;2022-12-20T07:59:42;23.30;;;14.37;;
13230;SDS011;6681;53.254;10.398;2022-12-20T08:02:24;21.77;;;14.43;;
13230;SDS011;6681;53.254;10.398;2022-12-20T08:04:55;24.73;;;15.20;;
13230;SDS011;6681;53.254;10.398;2022-12-20T08:07:21;17.67;;;12.93;;
13230;SDS011;6681;53.254;10.398;2022-12-20T08:09:48;22.47;;;13.97;;
13230;SDS011;6681;53.254;10.398;2022-12-20T08:12:14;18.03;;;13.77;;
13230;SDS011;6681;53.254;10.398;2022-12-20T08:14:41;16.70;;;12.83;;
13230;SDS011;6681;53.254;10.398;2022-12-20T08:17:08;21.07;;;13.57;;
13230;SDS011;6681;53.254;10.398;2022-12-20T08:19:35;18.30;;;13.87;;
13230;SDS011;6681;53.254;10.398;2022-12-20T08:22:00;22.10;;;14.77;;
13230;SDS011;6681;53.254;10.398;2022-12-20T08:24:26;17.00;;;12.43;;
13230;SDS011;6681;53.254;10.398;2022-12-20T08:26:52;19.83;;;14.30;;
13230;SDS011;6681;53.254;10.398;2022-12-20T08:29:17;18.43;;;12.53;;
13230;SDS011;6681;53.254;10.398;2022-12-20T08:31:43;21.53;;;13.90;;
13230;SDS011;6681;53.254;10.398;2022-12-20T08:34:09;18.90;;;12.90;;
13230;SDS011;6681;53.254;10.398;2022-12-20T08:36:35;18.73;;;12.73;;
13230;SDS011;6681;53.254;10.398;2022-12-20T08:39:04;19.53;;;13.33;;
13230;SDS011;6681;53.254;10.398;2022-12-20T08:41:30;19.23;;;13.13;;
13230;SDS011;6681;53.254;10.398;2022-12-20T08:43:58;21.53;;;14.17;;
13230;SDS011;6681;53.254;10.398;2022-12-20T08:46:23;16.53;;;11.83;;
13230;SDS011;6681;53.254;10.398;2022-12-20T08:48:49;13.80;;;11.13;;
13230;SDS011;6681;53.254;10.398;2022-12-20T08:51:15;16.30;;;10.90;;
13230;SDS011;6681;53.254;10.398;2022-12-20T08:53:41;12.63;;;11.27;;
13230;SDS011;6681;53.254;10.398;2022-12-20T08:56:11;17.57;;;13.30;;
13230;SDS011;6681;53.254;10.398;2022-12-20T08:58:39;17.60;;;10.80;;
13230;SDS011;6681;53.254;10.398;2022-12-20T09:01:07;15.53;;;10.90;;
13230;SDS011;6681;53.254;10.398;2022-12-20T09:03:35;14.03;;;10.27;;
13230;SDS011;6681;53.254;10.398;2022-12-20T09:06:04;14.57;;;11.70;;
13230;SDS011;6681;53.254;10.398;2022-12-20T09:08:32;13.87;;;11.20;;
13230;SDS011;6681;53.254;10.398;2022-12-20T09:11:02;13.47;;;10.10;;
13230;SDS011;6681;53.254;10.398;2022-12-20T09:13:49;16.70;;;11.20;;
13230;SDS011;6681;53.254;10.398;2022-12-20T09:16:17;15.67;;;10.10;;
13230;SDS011;6681;53.254;10.398;2022-12-20T09:18:49;21.23;;;11.50;;
13230;SDS011;6681;53.254;10.398;2022-12-20T09:21:15;15.20;;;10.17;;
13230;SDS011;6681;53.254;10.398;2022-12-20T09:23:41;13.87;;;9.20;;
13230;SDS011;6681;53.254;10.398;2022-12-20T09:26:09;12.67;;;9.60;;
13230;SDS011;6681;53.254;10.398;2022-12-20T09:28:36;12.10;;;9.33;;
13230;SDS011;6681;53.254;10.398;2022-12-20T09:31:03;13.77;;;10.10;;
13230;SDS011;6681;53.254;10.398;2022-12-20T09:33:30;13.47;;;9.77;;
13230;SDS011;6681;53.254;10.398;2022-12-20T09:35:57;17.77;;;9.33;;
13230;SDS011;6681;53.254;10.398;2022-12-20T09:38:24;13.10;;;9.70;;
13230;SDS011;6681;53.254;10.398;2022-12-20T09:40:51;14.33;;;8.80;;
13230;SDS011;6681;53.254;10.398;2022-12-20T09:43:20;16.30;;;9.27;;
13230;SDS011;6681;53.254;10.398;2022-12-20T09:45:47;15.80;;;9.83;;
13230;SDS011;6681;53.254;10.398;2022-12-20T09:48:16;14.70;;;10.37;;
13230;SDS011;6681;53.254;10.398;2022-12-20T09:54:21;13.47;;;9.27;;
13230;SDS011;6681;53.254;10.398;2022-12-20T09:56:23;14.63;;;10.13;;
13230;SDS011;6681;53.254;10.398;2022-12-20T10:01:29;13.17;;;8.43;;
13230;SDS011;6681;53.254;10.398;2022-12-20T10:03:57;15.60;;;8.63;;
13230;SDS011;6681;53.254;10.398;2022-12-20T10:15:17;13.33;;;8.83;;
13230;SDS011;6681;53.254;10.398;2022-12-20T10:20:38;13.50;;;8.23;;
13230;SDS011;6681;53.254;10.398;2022-12-20T10:26:10;14.03;;;9.47;;
13230;SDS011;6681;53.254;10.398;2022-12-20T10:28:37;8.50;;;7.30;;
13230;SDS011;6681;53.254;10.398;2022-12-20T10:31:12;9.67;;;7.97;;
13230;SDS011;6681;53.254;10.398;2022-12-20T10:33:38;12.13;;;9.47;;
13230;SDS011;6681;53.254;10.398;2022-12-20T10:38:52;10.87;;;8.17;;
13230;SDS011;6681;53.254;10.398;2022-12-20T10:41:28;8.40;;;6.57;;
13230;SDS011;6681;53.254;10.398;2022-12-20T10:44:03;7.97;;;7.17;;
13230;SDS011;6681;53.254;10.398;2022-12-20T10:46:43;10.80;;;7.60;;
13230;SDS011;6681;53.254;10.398;2022-12-20T10:52:02;9.50;;;7.53;;
13230;SDS011;6681;53.254;10.398;2022-12-20T10:54:40;13.30;;;8.00;;
13230;SDS011;6681;53.254;10.398;2022-12-20T10:59:59;8.00;;;6.37;;
13230;SDS011;6681;53.254;10.398;2022-12-20T11:02:31;10.70;;;7.50;;
13230;SDS011;6681;53.254;10.398;2022-12-20T11:05:00;10.33;;;7.17;;
13230;SDS011;6681;53.254;10.398;2022-12-20T11:07:36;9.57;;;7.33;;
13230;SDS011;6681;53.254;10.398;2022-12-20T11:10:23;7.50;;;6.40;;
13230;SDS011;6681;53.254;10.398;2022-12-20T11:12:54;7.97;;;6.13;;
13230;SDS011;6681;53.254;10.398;2022-12-20T11:15:22;8.77;;;5.83;;
13230;SDS011;6681;53.254;10.398;2022-12-20T11:17:51;7.80;;;6.60;;
13230;SDS011;6681;53.254;10.398;2022-12-20T11:23:40;8.13;;;5.87;;
13230;SDS011;6681;53.254;10.398;2022-12-20T11:29:52;7.50;;;6.30;;
13230;SDS011;6681;53.254;10.398;2022-12-20T11:37:25;8.57;;;6.47;;
13230;SDS011;6681;53.254;10.398;2022-12-20T11:45:09;7.40;;;5.57;;
13230;SDS011;6681;53.254;10.398;2022-12-20T11:53:11;10.40;;;6.17;;
13230;SDS011;6681;53.254;10.398;2022-12-20T11:55:45;8.63;;;5.10;;
13230;SDS011;6681;53.254;10.398;2022-12-20T12:00:58;6.87;;;6.17;;
13230;SDS011;6681;53.254;10.398;2022-12-20T12:06:01;6.90;;;5.40;;
13230;SDS011;6681;53.254;10.398;2022-12-20T12:09:14;7.33;;;6.00;;
13230;SDS011;6681;53.254;10.398;2022-12-20T12:11:39;7.63;;;5.60;;
13230;SDS011;6681;53.254;10.398;2022-12-20T12:14:14;8.70;;;6.77;;
13230;SDS011;6681;53.254;10.398;2022-12-20T12:16:56;6.57;;;5.17;;
13230;SDS011;6681;53.254;10.398;2022-12-20T12:19:29;8.17;;;5.77;;
13230;SDS011;6681;53.254;10.398;2022-12-20T12:22:00;8.43;;;6.13;;
13230;SDS011;6681;53.254;10.398;2022-12-20T12:27:25;13.93;;;6.80;;
13230;SDS011;6681;53.254;10.398;2022-12-20T12:29:52;5.37;;;4.80;;
13230;SDS011;6681;53.254;10.398;2022-12-20T12:35:02;7.37;;;5.50;;
13230;SDS011;6681;53.254;10.398;2022-12-20T12:37:53;10.23;;;5.53;;
13230;SDS011;6681;53.254;10.398;2022-12-20T12:40:44;11.27;;;5.57;;
13230;SDS011;6681;53.254;10.398;2022-12-20T12:46:08;6.07;;;4.37;;
13230;SDS011;6681;53.254;10.398;2022-12-20T12:51:11;6.83;;;5.40;;
13230;SDS011;6681;53.254;10.398;2022-12-20T12:53:43;5.87;;;4.73;;
13230;SDS011;6681;53.254;10.398;2022-12-20T13:11:49;7.63;;;5.23;;
13230;SDS011;6681;53.254;10.398;2022-12-20T13:19:52;7.93;;;4.43;;
13230;SDS011;6681;53.254;10.398;2022-12-20T13:24:49;7.10;;;4.57;;
13230;SDS011;6681;53.254;10.398;2022-12-20T13:27:22;6.97;;;4.40;;
13230;SDS011;6681;53.254;10.398;2022-12-20T13:30:35;5.83;;;4.87;;
13230;SDS011;6681;53.254;10.398;2022-12-20T13:32:52;7.50;;;4.20;;
13230;SDS011;6681;53.254;10.398;2022-12-20T13:40:41;8.03;;;4.83;;
13230;SDS011;6681;53.254;10.398;2022-12-20T13:43:41;4.23;;;3.43;;
13230;SDS011;6681;53.254;10.398;2022-12-20T13:51:03;6.33;;;4.47;;
13230;SDS011;6681;53.254;10.398;2022-12-20T13:53:31;6.73;;;4.30;;
13230;SDS011;6681;53.254;10.398;2022-12-20T13:55:57;7.77;;;3.97;;
13230;SDS011;6681;53.254;10.398;2022-12-20T13:58:43;6.07;;;4.40;;
13230;SDS011;6681;53.254;10.398;2022-12-20T14:01:10;7.87;;;4.57;;
13230;SDS011;6681;53.254;10.398;2022-12-20T14:03:46;7.53;;;5.30;;
13230;SDS011;6681;53.254;10.398;2022-12-20T14:06:13;7.50;;;5.50;;
13230;SDS011;6681;53.254;10.398;2022-12-20T14:08:40;9.00;;;4.80;;
13230;SDS011;6681;53.254;10.398;2022-12-20T14:11:12;6.63;;;4.70;;
13230;SDS011;6681;53.254;10.398;2022-12-20T14:13:39;5.93;;;4.93;;
13230;SDS011;6681;53.254;10.398;2022-12-20T14:16:16;6.73;;;4.67;;
13230;SDS011;6681;53.254;10.398;2022-12-20T14:18:49;4.73;;;4.20;;
13230;SDS011;6681;53.254;10.398;2022-12-20T14:21:15;6.33;;;4.73;;
13230;SDS011;6681;53.254;10.398;2022-12-20T14:23:43;6.43;;;4.63;;
13230;SDS011;6681;53.254;10.398;2022-12-20T14:26:16;4.57;;;3.97;;
13230;SDS011;6681;53.254;10.398;2022-12-20T14:28:45;10.30;;;4.90;;
13230;SDS011;6681;53.254;10.398;2022-12-20T14:36:34;5.37;;;4.47;;
13230;SDS011;6681;53.254;10.398;2022-12-20T14:39:23;15.03;;;5.50;;
13230;SDS011;6681;53.254;10.398;2022-12-20T14:41:58;5.70;;;4.13;;
13230;SDS011;6681;53.254;10.398;2022-12-20T14:44:29;5.80;;;4.60;;
13230;SDS011;6681;53.254;10.398;2022-12-20T14:49:24;5.50;;;4.40;;
13230;SDS011;6681;53.254;10.398;2022-12-20T14:52:14;7.87;;;4.90;;
13230;SDS011;6681;53.254;10.398;2022-12-20T14:54:49;5.47;;;4.83;;
13230;SDS011;6681;53.254;10.398;2022-12-20T15:02:57;7.57;;;4.30;;
13230;SDS011;6681;53.254;10.398;2022-12-20T15:13:20;8.00;;;4.43;;
13230;SDS011;6681;53.254;10.398;2022-12-20T15:15:49;5.90;;;4.57;;
13230;SDS011;6681;53.254;10.398;2022-12-20T15:18:15;6.73;;;5.67;;
13230;SDS011;6681;53.254;10.398;2022-12-20T15:20:43;6.13;;;5.03;;
13230;SDS011;6681;53.254;10.398;2022-12-20T15:23:16;6.73;;;4.87;;
13230;SDS011;6681;53.254;10.398;2022-12-20T15:25:43;5.67;;;4.63;;
13230;SDS011;6681;53.254;10.398;2022-12-20T15:28:14;7.40;;;4.50;;
13230;SDS011;6681;53.254;10.398;2022-12-20T15:30:41;5.30;;;4.73;;
13230;SDS011;6681;53.254;10.398;2022-12-20T15:33:09;4.63;;;3.70;;
13230;SDS011;6681;53.254;10.398;2022-12-20T15:35:42;7.93;;;4.73;;
13230;SDS011;6681;53.254;10.398;2022-12-20T15:38:16;6.00;;;4.73;;
13230;SDS011;6681;53.254;10.398;2022-12-20T15:40:47;6.53;;;4.33;;
13230;SDS011;6681;53.254;10.398;2022-12-20T15:43:17;7.30;;;4.93;;
13230;SDS011;6681;53.254;10.398;2022-12-20T15:45:45;7.10;;;5.57;;
13230;SDS011;6681;53.254;10.398;2022-12-20T15:48:15;6.03;;;4.33;;
13230;SDS011;6681;53.254;10.398;2022-12-20T15:50:44;6.17;;;4.63;;
13230;SDS011;6681;53.254;10.398;2022-12-20T15:53:24;6.27;;;4.70;;
13230;SDS011;6681;53.254;10.398;2022-12-20T15:55:57;6.90;;;5.80;;
13230;SDS011;6681;53.254;10.398;2022-12-20T15:58:23;4.30;;;3.87;;
13230;SDS011;6681;53.254;10.398;2022-12-20T16:00:51;7.03;;;4.80;;
13230;SDS011;6681;53.254;10.398;2022-12-20T16:03:20;7.13;;;5.63;;
13230;SDS011;6681;53.254;10.398;2022-12-20T16:05:48;6.83;;;4.57;;
13230;SDS011;6681;53.254;10.398;2022-12-20T16:08:15;5.33;;;4.27;;
13230;SDS011;6681;53.254;10.398;2022-12-20T16:10:42;6.20;;;4.10;;
13230;SDS011;6681;53.254;10.398;2022-12-20T16:13:13;6.87;;;4.67;;
13230;SDS011;6681;53.254;10.398;2022-12-20T16:15:45;8.37;;;4.93;;
13230;SDS011;6681;53.254;10.398;2022-12-20T16:18:11;9.00;;;5.37;;
13230;SDS011;6681;53.254;10.398;2022-12-20T16:20:37;4.73;;;4.23;;
13230;SDS011;6681;53.254;10.398;2022-12-20T16:23:03;7.63;;;5.57;;
13230;SDS011;6681;53.254;10.398;2022-12-20T16:25:32;6.00;;;5.20;;
13230;SDS011;6681;53.254;10.398;2022-12-20T16:27:59;6.03;;;5.00;;
13230;SDS011;6681;53.254;10.398;2022-12-20T16:30:25;8.47;;;5.63;;
13230;SDS011;6681;53.254;10.398;2022-12-20T16:32:51;4.43;;;3.77;;
13230;SDS011;6681;53.254;10.398;2022-12-20T16:35:22;7.23;;;4.80;;
13230;SDS011;6681;53.254;10.398;2022-12-20T16:37:58;6.93;;;4.80;;
13230;SDS011;6681;53.254;10.398;2022-12-20T16:40:25;7.73;;;4.77;;
13230;SDS011;6681;53.254;10.398;2022-12-20T16:42:53;7.13;;;4.77;;
13230;SDS011;6681;53.254;10.398;2022-12-20T16:45:21;6.73;;;4.30;;
13230;SDS011;6681;53.254;10.398;2022-12-20T16:47:48;6.80;;;6.10;;
13230;SDS011;6681;53.254;10.398;2022-12-20T16:50:15;6.00;;;5.43;;
13230;SDS011;6681;53.254;10.398;2022-12-20T16:52:41;5.27;;;4.70;;
13230;SDS011;6681;53.254;10.398;2022-12-20T16:55:14;8.30;;;6.17;;
13230;SDS011;6681;53.254;10.398;2022-12-20T16:57:43;7.33;;;5.57;;
13230;SDS011;6681;53.254;10.398;2022-12-20T17:00:09;7.43;;;5.77;;
13230;SDS011;6681;53.254;10.398;2022-12-20T17:02:46;10.03;;;6.17;;
13230;SDS011;6681;53.254;10.398;2022-12-20T17:05:26;5.07;;;4.27;;